Time,TemperatureF,DewpointF,PressureIn,WindDirection,WindDirectionDegrees,WindSpeedMPH,WindSpeedGustMPH,Humidity,HourlyPrecipIn,Conditions,Clouds,dailyrainin,SoftwareType,DateUTC
2015-08-31 00:02:00,68.9,65.5,30.05,SSW,195,0.0,1.0,89,0.00,,,0.00,meteohub,2015-08-31 04:02:00,
2015-08-31 00:07:00,68.7,65.3,30.05,SSW,195,0.0,1.0,89,0.00,,,0.00,meteohub,2015-08-31 04:07:00,
2015-08-31 00:12:00,68.7,65.3,30.05,SSW,195,0.0,1.0,89,0.00,,,0.00,meteohub,2015-08-31 04:12:00,
2015-08-31 00:17:00,68.5,65.1,30.05,SSW,195,0.0,0.0,89,0.00,,,0.00,meteohub,2015-08-31 04:17:00,
2015-08-31 00:22:00,68.4,65.3,30.05,SSW,195,0.0,0.0,90,0.00,,,0.00,meteohub,2015-08-31 04:22:00,
2015-08-31 00:27:00,68.4,65.3,30.05,SSW,195,0.0,1.0,90,0.00,,,0.00,meteohub,2015-08-31 04:27:00,
2015-08-31 00:32:00,68.2,65.1,30.05,SSW,195,1.0,1.0,90,0.00,,,0.00,meteohub,2015-08-31 04:32:00,
2015-08-31 00:37:00,68.2,65.1,30.05,SSW,195,0.0,1.0,90,0.00,,,0.00,meteohub,2015-08-31 04:37:00,
2015-08-31 00:42:00,68.2,65.5,30.05,SSW,195,0.0,1.0,91,0.00,,,0.00,meteohub,2015-08-31 04:42:00,
2015-08-31 00:47:00,68.2,65.5,30.05,SSW,195,0.0,1.0,91,0.00,,,0.00,meteohub,2015-08-31 04:47:00,
2015-08-31 00:52:00,68.0,65.7,30.05,SSW,195,0.0,1.0,92,0.00,,,0.00,meteohub,2015-08-31 04:52:00,
2015-08-31 00:57:00,67.8,65.5,30.05,SSW,195,0.0,1.0,92,0.00,,,0.00,meteohub,2015-08-31 04:57:00,
2015-08-31 01:02:00,67.8,65.5,30.05,SSW,195,0.0,1.0,92,0.00,,,0.00,meteohub,2015-08-31 05:02:00,
2015-08-31 01:07:00,67.8,65.5,30.05,SSW,195,0.0,1.0,92,0.00,,,0.00,meteohub,2015-08-31 05:07:00,
2015-08-31 01:12:00,68.0,65.7,30.05,SSW,195,0.0,1.0,92,0.00,,,0.00,meteohub,2015-08-31 05:12:00,
2015-08-31 01:17:00,67.8,65.1,30.06,SSW,195,0.0,1.0,91,0.00,,,0.00,meteohub,2015-08-31 05:17:00,
2015-08-31 01:22:00,67.8,65.5,30.06,SSW,195,0.0,0.0,92,0.00,,,0.00,meteohub,2015-08-31 05:22:00,
2015-08-31 01:27:00,67.6,65.3,30.05,SSW,195,0.0,0.0,92,0.00,,,0.00,meteohub,2015-08-31 05:27:00,
2015-08-31 01:32:00,67.5,65.1,30.05,SSW,195,0.0,1.0,92,0.00,,,0.00,meteohub,2015-08-31 05:32:00,
2015-08-31 01:37:00,67.5,65.3,30.05,SSW,195,0.0,1.0,93,0.00,,,0.00,meteohub,2015-08-31 05:37:00,
2015-08-31 01:42:00,67.3,65.1,30.05,SSW,195,0.0,1.0,93,0.00,,,0.00,meteohub,2015-08-31 05:42:00,
2015-08-31 01:52:00,67.3,65.1,30.05,SSW,195,0.0,1.0,93,0.00,,,0.00,meteohub,2015-08-31 05:52:00,
2015-08-31 01:57:00,66.9,64.8,30.05,SSW,195,0.0,1.0,93,0.00,,,0.00,meteohub,2015-08-31 05:57:00,
2015-08-31 02:02:00,66.9,65.1,30.05,SSW,195,0.0,1.0,94,0.00,,,0.00,meteohub,2015-08-31 06:02:00,
2015-08-31 02:07:00,66.9,65.5,30.05,SSW,195,0.0,1.0,95,0.00,,,0.00,meteohub,2015-08-31 06:07:00,
2015-08-31 02:12:00,67.3,65.8,30.05,SSW,195,0.0,1.0,95,0.00,,,0.00,meteohub,2015-08-31 06:12:00,
2015-08-31 02:17:00,67.3,65.8,30.05,SSW,195,0.0,0.0,95,0.00,,,0.00,meteohub,2015-08-31 06:17:00,
2015-08-31 02:22:00,67.3,65.8,30.05,SSW,199,1.0,1.0,95,0.00,,,0.00,meteohub,2015-08-31 06:22:00,
2015-08-31 02:27:00,67.3,65.8,30.05,SSW,192,1.0,2.0,95,0.00,,,0.00,meteohub,2015-08-31 06:27:00,
2015-08-31 02:32:00,67.5,66.0,30.04,SSW,192,0.0,3.0,95,0.00,,,0.00,meteohub,2015-08-31 06:32:00,
2015-08-31 02:37:00,67.5,66.0,30.04,SSW,192,0.0,3.0,95,0.00,,,0.00,meteohub,2015-08-31 06:37:00,
2015-08-31 02:42:00,67.5,66.0,30.04,SSW,192,0.0,2.0,95,0.00,,,0.00,meteohub,2015-08-31 06:42:00,
2015-08-31 02:47:00,67.5,66.0,30.04,SSW,193,0.0,2.0,95,0.00,,,0.00,meteohub,2015-08-31 06:47:00,
2015-08-31 02:52:00,67.5,66.0,30.04,SSW,193,1.0,2.0,95,0.00,,,0.00,meteohub,2015-08-31 06:52:00,
2015-08-31 02:57:00,67.5,66.0,30.04,SSW,193,1.0,2.0,95,0.00,,,0.00,meteohub,2015-08-31 06:57:00,
2015-08-31 03:02:00,67.3,65.8,30.04,SSW,197,1.0,2.0,95,0.00,,,0.00,meteohub,2015-08-31 07:02:00,
2015-08-31 03:07:00,67.3,65.8,30.04,SSW,197,1.0,2.0,95,0.00,,,0.00,meteohub,2015-08-31 07:07:00,
2015-08-31 03:12:00,67.3,66.0,30.04,SSW,198,0.0,2.0,96,0.00,,,0.00,meteohub,2015-08-31 07:12:00,
2015-08-31 03:17:00,67.3,66.0,30.04,SSW,198,0.0,2.0,96,0.00,,,0.00,meteohub,2015-08-31 07:17:00,
2015-08-31 03:22:00,67.3,66.0,30.04,SSW,198,0.0,2.0,96,0.00,,,0.00,meteohub,2015-08-31 07:22:00,
2015-08-31 03:27:00,67.5,66.2,30.04,SSW,198,0.0,1.0,96,0.00,,,0.00,meteohub,2015-08-31 07:27:00,
2015-08-31 03:32:00,67.5,66.2,30.04,SSW,198,0.0,1.0,96,0.00,,,0.00,meteohub,2015-08-31 07:32:00,
2015-08-31 03:37:00,67.5,66.0,30.04,SSW,198,0.0,1.0,95,0.00,,,0.00,meteohub,2015-08-31 07:37:00,
2015-08-31 03:42:00,67.3,65.8,30.04,SSW,198,0.0,1.0,95,0.00,,,0.00,meteohub,2015-08-31 07:42:00,
2015-08-31 03:47:00,67.5,66.2,30.04,SSW,198,1.0,1.0,96,0.00,,,0.00,meteohub,2015-08-31 07:47:00,
2015-08-31 03:52:00,67.5,66.2,30.04,SSW,199,1.0,2.0,96,0.00,,,0.00,meteohub,2015-08-31 07:52:00,
2015-08-31 03:57:00,67.5,66.2,30.04,SSW,200,1.0,3.0,96,0.00,,,0.00,meteohub,2015-08-31 07:57:00,
2015-08-31 04:02:00,67.5,66.2,30.04,South,183,1.0,3.0,96,0.00,,,0.00,meteohub,2015-08-31 08:02:00,
2015-08-31 04:07:00,67.5,66.2,30.04,South,182,1.0,3.0,96,0.00,,,0.00,meteohub,2015-08-31 08:07:00,
2015-08-31 04:12:00,67.5,66.2,30.04,SSW,202,0.0,3.0,96,0.00,,,0.00,meteohub,2015-08-31 08:12:00,
2015-08-31 04:17:00,67.5,66.2,30.04,SW,217,0.0,3.0,96,0.00,,,0.00,meteohub,2015-08-31 08:17:00,
2015-08-31 04:22:00,67.5,66.0,30.04,SW,217,0.0,3.0,95,0.00,,,0.00,meteohub,2015-08-31 08:22:00,
2015-08-31 04:27:00,67.5,66.0,30.04,SW,217,1.0,2.0,95,0.00,,,0.00,meteohub,2015-08-31 08:27:00,
2015-08-31 04:32:00,67.5,66.0,30.04,SW,217,0.0,1.0,95,0.00,,,0.00,meteohub,2015-08-31 08:32:00,
2015-08-31 04:37:00,67.5,66.0,30.04,SW,217,0.0,1.0,95,0.00,,,0.00,meteohub,2015-08-31 08:37:00,
2015-08-31 04:42:00,67.5,66.0,30.04,SW,217,0.0,1.0,95,0.00,,,0.00,meteohub,2015-08-31 08:42:00,
2015-08-31 04:47:00,67.5,66.0,30.04,SW,217,1.0,1.0,95,0.00,,,0.00,meteohub,2015-08-31 08:47:00,
2015-08-31 04:52:00,67.3,65.8,30.04,SW,217,0.0,1.0,95,0.00,,,0.00,meteohub,2015-08-31 08:52:00,
2015-08-31 04:57:00,67.3,65.8,30.04,SW,217,0.0,1.0,95,0.00,,,0.00,meteohub,2015-08-31 08:57:00,
2015-08-31 05:02:00,67.3,65.8,30.04,SW,217,0.0,1.0,95,0.00,,,0.00,meteohub,2015-08-31 09:02:00,
2015-08-31 05:07:00,67.3,65.8,30.04,SW,217,0.0,1.0,95,0.00,,,0.00,meteohub,2015-08-31 09:07:00,
2015-08-31 05:12:00,67.3,65.8,30.04,SW,217,0.0,0.0,95,0.00,,,0.00,meteohub,2015-08-31 09:12:00,
2015-08-31 05:17:00,67.1,65.7,30.04,SW,217,0.0,0.0,95,0.00,,,0.00,meteohub,2015-08-31 09:17:00,
2015-08-31 05:22:00,66.9,65.5,30.04,SW,217,0.0,0.0,95,0.00,,,0.00,meteohub,2015-08-31 09:22:00,
2015-08-31 05:27:00,66.7,65.3,30.04,SW,217,0.0,0.0,95,0.00,,,0.00,meteohub,2015-08-31 09:27:00,
2015-08-31 05:32:00,66.7,65.3,30.04,SW,217,0.0,0.0,95,0.00,,,0.00,meteohub,2015-08-31 09:32:00,
2015-08-31 05:37:00,66.6,65.1,30.04,SW,217,0.0,0.0,95,0.00,,,0.00,meteohub,2015-08-31 09:37:00,
2015-08-31 05:42:00,66.6,65.1,30.04,SW,217,0.0,1.0,95,0.00,,,0.00,meteohub,2015-08-31 09:42:00,
2015-08-31 05:47:00,66.4,65.1,30.05,SW,217,0.0,1.0,96,0.00,,,0.00,meteohub,2015-08-31 09:47:00,
2015-08-31 05:52:00,66.4,65.1,30.04,SW,217,0.0,1.0,96,0.00,,,0.00,meteohub,2015-08-31 09:52:00,
2015-08-31 05:57:00,66.4,65.1,30.04,SW,217,0.0,1.0,96,0.00,,,0.00,meteohub,2015-08-31 09:57:00,
2015-08-31 06:02:00,66.2,64.9,30.05,SW,217,0.0,1.0,96,0.00,,,0.00,meteohub,2015-08-31 10:02:00,
2015-08-31 06:07:00,66.0,64.6,30.05,SW,217,0.0,0.0,95,0.00,,,0.00,meteohub,2015-08-31 10:07:00,
2015-08-31 06:12:00,66.0,64.8,30.05,SW,217,0.0,0.0,96,0.00,,,0.00,meteohub,2015-08-31 10:12:00,
2015-08-31 06:17:00,66.0,64.8,30.05,SW,217,0.0,0.0,96,0.00,,,0.00,meteohub,2015-08-31 10:17:00,
2015-08-31 06:22:00,65.8,64.6,30.05,SW,217,0.0,0.0,96,0.00,,,0.00,meteohub,2015-08-31 10:22:00,
2015-08-31 06:27:00,65.7,64.4,30.05,SW,217,0.0,1.0,96,0.00,,,0.00,meteohub,2015-08-31 10:27:00,
2015-08-31 06:32:00,65.5,64.0,30.06,SW,217,0.0,1.0,95,0.00,,,0.00,meteohub,2015-08-31 10:32:00,
2015-08-31 06:38:00,65.5,64.2,30.06,SW,217,0.0,1.0,96,0.00,,,0.00,meteohub,2015-08-31 10:38:00,
2015-08-31 06:43:00,65.5,64.2,30.06,SW,217,1.0,1.0,96,0.00,,,0.00,meteohub,2015-08-31 10:43:00,
2015-08-31 06:48:00,65.3,64.0,30.06,SW,217,0.0,1.0,96,0.00,,,0.00,meteohub,2015-08-31 10:48:00,
2015-08-31 06:53:00,65.5,64.2,30.06,SW,217,0.0,1.0,96,0.00,,,0.00,meteohub,2015-08-31 10:53:00,
2015-08-31 06:58:00,65.5,64.2,30.06,SW,217,0.0,1.0,96,0.00,,,0.00,meteohub,2015-08-31 10:58:00,
2015-08-31 07:03:00,65.5,64.6,30.06,SW,217,0.0,1.0,97,0.00,,,0.00,meteohub,2015-08-31 11:03:00,
2015-08-31 07:08:00,65.7,64.8,30.06,SW,217,0.0,1.0,97,0.00,,,0.00,meteohub,2015-08-31 11:08:00,
2015-08-31 07:14:00,65.7,64.8,30.07,SW,217,0.0,1.0,97,0.00,,,0.00,meteohub,2015-08-31 11:14:00,
2015-08-31 07:19:00,65.8,64.9,30.07,SW,217,0.0,1.0,97,0.00,,,0.00,meteohub,2015-08-31 11:19:00,
2015-08-31 07:24:00,65.8,64.9,30.07,SW,217,0.0,1.0,97,0.00,,,0.00,meteohub,2015-08-31 11:24:00,
2015-08-31 07:29:00,66.0,65.1,30.07,SW,217,0.0,1.0,97,0.00,,,0.00,meteohub,2015-08-31 11:29:00,
2015-08-31 07:34:00,66.0,65.1,30.08,SW,217,0.0,0.0,97,0.00,,,0.00,meteohub,2015-08-31 11:34:00,
2015-08-31 07:39:00,66.0,65.1,30.08,SW,217,0.0,0.0,97,0.00,,,0.00,meteohub,2015-08-31 11:39:00,
2015-08-31 07:45:00,66.0,65.1,30.08,SW,217,0.0,0.0,97,0.00,,,0.00,meteohub,2015-08-31 11:45:00,
2015-08-31 07:50:00,66.0,65.1,30.09,SW,217,0.0,0.0,97,0.00,,,0.00,meteohub,2015-08-31 11:50:00,
2015-08-31 07:55:00,66.0,65.1,30.09,SW,217,0.0,0.0,97,0.00,,,0.00,meteohub,2015-08-31 11:55:00,
2015-08-31 08:00:00,66.2,65.3,30.09,SW,217,1.0,1.0,97,0.00,,,0.00,meteohub,2015-08-31 12:00:00,
2015-08-31 08:05:00,66.4,65.5,30.09,SW,219,1.0,1.0,97,0.00,,,0.00,meteohub,2015-08-31 12:05:00,
2015-08-31 08:10:00,66.6,65.7,30.09,SSW,202,2.0,2.0,97,0.00,,,0.00,meteohub,2015-08-31 12:10:00,
2015-08-31 08:16:00,66.7,65.8,30.09,SW,215,2.0,3.0,97,0.00,,,0.00,meteohub,2015-08-31 12:16:00,
2015-08-31 08:21:00,66.9,66.0,30.09,SW,215,1.0,3.0,97,0.00,,,0.00,meteohub,2015-08-31 12:21:00,
2015-08-31 08:26:00,67.3,66.4,30.09,SW,223,2.0,3.0,97,0.00,,,0.00,meteohub,2015-08-31 12:26:00,
2015-08-31 08:31:00,67.5,66.6,30.09,SW,223,1.0,3.0,97,0.00,,,0.00,meteohub,2015-08-31 12:31:00,
2015-08-31 08:36:00,67.6,66.7,30.09,SW,222,2.0,3.0,97,0.00,,,0.00,meteohub,2015-08-31 12:36:00,
2015-08-31 08:41:00,68.0,67.1,30.09,SSW,208,2.0,3.0,97,0.00,,,0.00,meteohub,2015-08-31 12:41:00,
2015-08-31 08:46:00,68.4,67.5,30.10,SSW,204,0.0,3.0,97,0.00,,,0.00,meteohub,2015-08-31 12:46:00,
2015-08-31 08:52:00,68.7,67.3,30.10,SW,217,2.0,3.0,95,0.00,,,0.00,meteohub,2015-08-31 12:52:00,
2015-08-31 08:57:00,69.1,67.6,30.10,SW,217,2.0,4.0,95,0.00,,,0.00,meteohub,2015-08-31 12:57:00,
2015-08-31 09:02:00,69.4,67.6,30.09,SW,222,1.0,4.0,94,0.00,,,0.00,meteohub,2015-08-31 13:02:00,
2015-08-31 09:07:00,69.8,68.0,30.10,SSW,212,1.0,4.0,94,0.00,,,0.00,meteohub,2015-08-31 13:07:00,
2015-08-31 09:12:00,70.2,68.0,30.10,SW,219,1.0,4.0,93,0.00,,,0.00,meteohub,2015-08-31 13:12:00,
2015-08-31 09:17:00,70.5,68.0,30.10,SSW,204,2.0,3.0,92,0.00,,,0.00,meteohub,2015-08-31 13:17:00,
2015-08-31 09:22:00,71.1,68.5,30.10,SSW,205,2.0,4.0,92,0.00,,,0.00,meteohub,2015-08-31 13:22:00,
2015-08-31 09:27:00,71.4,68.7,30.10,SW,216,2.0,4.0,91,0.00,,,0.00,meteohub,2015-08-31 13:27:00,
2015-08-31 09:32:00,72.0,68.9,30.10,SSW,212,1.0,4.0,90,0.00,,,0.00,meteohub,2015-08-31 13:32:00,
2015-08-31 09:37:00,72.3,68.9,30.10,SSW,207,0.0,4.0,89,0.00,,,0.00,meteohub,2015-08-31 13:37:00,
2015-08-31 09:43:00,72.9,69.1,30.10,West,275,1.0,4.0,88,0.00,,,0.00,meteohub,2015-08-31 13:43:00,
2015-08-31 09:48:00,73.4,69.6,30.10,WNW,288,1.0,4.0,88,0.00,,,0.00,meteohub,2015-08-31 13:48:00,
2015-08-31 09:53:00,73.9,69.4,30.11,WNW,288,2.0,4.0,86,0.00,,,0.00,meteohub,2015-08-31 13:53:00,
2015-08-31 09:58:00,74.1,69.6,30.11,SSW,193,2.0,4.0,86,0.00,,,0.00,meteohub,2015-08-31 13:58:00,
2015-08-31 10:03:00,74.5,69.6,30.10,SW,229,2.0,3.0,85,0.00,,,0.00,meteohub,2015-08-31 14:03:00,
2015-08-31 10:08:00,74.8,70.0,30.10,West,273,1.0,4.0,85,0.00,,,0.00,meteohub,2015-08-31 14:08:00,
2015-08-31 10:13:00,75.2,70.0,30.11,West,281,2.0,4.0,84,0.00,,,0.00,meteohub,2015-08-31 14:13:00,
2015-08-31 10:19:00,75.6,70.3,30.11,West,280,1.0,4.0,84,0.00,,,0.00,meteohub,2015-08-31 14:19:00,
2015-08-31 10:24:00,75.7,70.5,30.11,SW,220,2.0,3.0,84,0.00,,,0.00,meteohub,2015-08-31 14:24:00,
2015-08-31 10:29:00,76.3,70.7,30.10,SSW,213,0.0,3.0,83,0.00,,,0.00,meteohub,2015-08-31 14:29:00,
2015-08-31 10:34:00,76.8,70.9,30.11,SW,217,1.0,5.0,82,0.00,,,0.00,meteohub,2015-08-31 14:34:00,
2015-08-31 10:39:00,77.4,71.1,30.11,WSW,250,1.0,5.0,81,0.00,,,0.00,meteohub,2015-08-31 14:39:00,
2015-08-31 10:44:00,77.5,71.2,30.11,SW,236,2.0,3.0,81,0.00,,,0.00,meteohub,2015-08-31 14:44:00,
2015-08-31 10:50:00,78.1,70.3,30.11,West,260,1.0,3.0,77,0.00,,,0.00,meteohub,2015-08-31 14:50:00,
2015-08-31 10:55:00,78.3,70.9,30.11,West,280,1.0,3.0,78,0.00,,,0.00,meteohub,2015-08-31 14:55:00,
2015-08-31 11:00:00,78.4,71.1,30.11,West,275,0.0,2.0,78,0.00,,,0.00,meteohub,2015-08-31 15:00:00,
2015-08-31 11:05:00,78.6,70.9,30.11,SW,227,1.0,2.0,77,0.00,,,0.00,meteohub,2015-08-31 15:05:00,
2015-08-31 11:10:00,79.2,71.2,30.12,West,271,0.0,4.0,77,0.00,,,0.00,meteohub,2015-08-31 15:10:00,
2015-08-31 11:15:00,79.5,71.2,30.12,WNW,282,0.0,4.0,76,0.00,,,0.00,meteohub,2015-08-31 15:15:00,
2015-08-31 11:21:00,79.9,71.2,30.12,West,259,0.0,4.0,75,0.00,,,0.00,meteohub,2015-08-31 15:21:00,
2015-08-31 11:26:00,80.1,70.7,30.11,WNW,287,2.0,3.0,73,0.00,,,0.00,meteohub,2015-08-31 15:26:00,
2015-08-31 11:31:00,80.4,70.2,30.11,SW,219,3.0,6.0,71,0.00,,,0.00,meteohub,2015-08-31 15:31:00,
2015-08-31 11:36:00,80.6,70.7,30.11,West,266,1.0,6.0,72,0.00,,,0.00,meteohub,2015-08-31 15:36:00,
2015-08-31 11:41:00,80.8,70.5,30.11,West,277,2.0,6.0,71,0.00,,,0.00,meteohub,2015-08-31 15:41:00,
2015-08-31 11:46:00,80.6,70.3,30.11,West,279,0.0,6.0,71,0.00,,,0.00,meteohub,2015-08-31 15:46:00,
2015-08-31 11:51:00,80.8,69.6,30.11,SW,232,2.0,6.0,69,0.00,,,0.00,meteohub,2015-08-31 15:51:00,
2015-08-31 11:57:00,81.0,69.4,30.11,WNW,285,2.0,7.0,68,0.00,,,0.00,meteohub,2015-08-31 15:57:00,
2015-08-31 12:02:00,81.0,69.4,30.10,West,259,0.0,7.0,68,0.00,,,0.00,meteohub,2015-08-31 16:02:00,
2015-08-31 12:07:00,81.1,70.0,30.10,West,273,2.0,7.0,69,0.00,,,0.00,meteohub,2015-08-31 16:07:00,
2015-08-31 12:12:00,81.1,70.0,30.10,SSW,202,2.0,4.0,69,0.00,,,0.00,meteohub,2015-08-31 16:12:00,
2015-08-31 12:17:00,81.7,69.3,30.10,SW,215,4.0,4.0,66,0.00,,,0.00,meteohub,2015-08-31 16:17:00,
2015-08-31 12:22:00,82.0,70.3,30.10,WSW,242,1.0,6.0,68,0.00,,,0.00,meteohub,2015-08-31 16:22:00,
2015-08-31 12:27:00,82.4,69.4,30.10,WSW,241,1.0,6.0,65,0.00,,,0.00,meteohub,2015-08-31 16:27:00,
2015-08-31 12:32:00,82.6,70.5,30.10,West,262,2.0,4.0,67,0.00,,,0.00,meteohub,2015-08-31 16:32:00,
2015-08-31 12:42:00,82.9,69.4,30.10,SW,221,2.0,4.0,64,0.00,,,0.00,meteohub,2015-08-31 16:42:00,
2015-08-31 12:47:00,82.9,69.1,30.09,SSW,200,2.0,5.0,63,0.00,,,0.00,meteohub,2015-08-31 16:47:00,
2015-08-31 13:02:00,84.0,68.2,30.09,West,277,0.0,7.0,59,0.00,,,0.00,meteohub,2015-08-31 17:02:00,
2015-08-31 13:07:00,84.0,68.7,30.09,SSW,203,3.0,7.0,60,0.00,,,0.00,meteohub,2015-08-31 17:07:00,
2015-08-31 13:12:00,84.0,69.1,30.09,SW,233,1.0,6.0,61,0.00,,,0.00,meteohub,2015-08-31 17:12:00,
2015-08-31 13:17:00,84.0,69.6,30.09,South,171,4.0,6.0,62,0.00,,,0.00,meteohub,2015-08-31 17:17:00,
2015-08-31 13:22:00,84.4,68.9,30.09,WSW,248,3.0,8.0,60,0.00,,,0.00,meteohub,2015-08-31 17:22:00,
2015-08-31 13:32:00,84.4,67.5,30.08,SSE,163,2.0,8.0,57,0.00,,,0.00,meteohub,2015-08-31 17:32:00,
2015-08-31 13:37:00,84.0,68.2,30.08,SSW,207,3.0,9.0,59,0.00,,,0.00,meteohub,2015-08-31 17:37:00,
2015-08-31 13:42:00,83.8,68.0,30.08,SW,234,1.0,10.0,59,0.00,,,0.00,meteohub,2015-08-31 17:42:00,
2015-08-31 13:47:00,84.2,68.4,30.08,SW,217,6.0,12.0,59,0.00,,,0.00,meteohub,2015-08-31 17:47:00,
2015-08-31 13:52:00,84.6,67.6,30.08,West,267,2.0,12.0,57,0.00,,,0.00,meteohub,2015-08-31 17:52:00,
2015-08-31 13:57:00,84.7,67.8,30.08,South,191,1.0,12.0,57,0.00,,,0.00,meteohub,2015-08-31 17:57:00,
2015-08-31 14:02:00,85.5,68.5,30.08,SW,233,1.0,9.0,57,0.00,,,0.00,meteohub,2015-08-31 18:02:00,
2015-08-31 14:07:00,85.8,68.4,30.07,SSW,202,1.0,9.0,56,0.00,,,0.00,meteohub,2015-08-31 18:07:00,
2015-08-31 14:12:00,86.0,68.0,30.07,West,269,2.0,9.0,55,0.00,,,0.00,meteohub,2015-08-31 18:12:00,
2015-08-31 14:17:00,85.6,68.7,30.07,SW,221,2.0,7.0,57,0.00,,,0.00,meteohub,2015-08-31 18:17:00,
2015-08-31 14:22:00,85.8,68.4,30.07,WSW,241,1.0,7.0,56,0.00,,,0.00,meteohub,2015-08-31 18:22:00,
2015-08-31 14:27:00,86.2,68.7,30.07,West,277,2.0,7.0,56,0.00,,,0.00,meteohub,2015-08-31 18:27:00,
2015-08-31 14:37:00,86.2,67.6,30.06,SSW,211,2.0,7.0,54,0.00,,,0.00,meteohub,2015-08-31 18:37:00,
2015-08-31 14:42:00,86.0,68.9,30.06,West,275,1.0,7.0,57,0.00,,,0.00,meteohub,2015-08-31 18:42:00,
2015-08-31 14:52:00,86.7,68.0,30.06,West,281,1.0,4.0,54,0.00,,,0.00,meteohub,2015-08-31 18:52:00,
2015-08-31 14:57:00,86.4,68.4,30.06,WNW,284,2.0,4.0,55,0.00,,,0.00,meteohub,2015-08-31 18:57:00,
2015-08-31 15:02:00,85.5,68.5,30.06,SSW,202,3.0,4.0,57,0.00,,,0.00,meteohub,2015-08-31 19:02:00,
2015-08-31 15:07:00,85.3,67.8,30.06,SW,218,4.0,5.0,56,0.00,,,0.00,meteohub,2015-08-31 19:07:00,
2015-08-31 15:17:00,85.5,68.0,30.05,West,277,0.0,6.0,56,0.00,,,0.00,meteohub,2015-08-31 19:17:00,
2015-08-31 15:22:00,86.2,68.7,30.05,WSW,238,2.0,6.0,56,0.00,,,0.00,meteohub,2015-08-31 19:22:00,
2015-08-31 15:27:00,86.9,68.2,30.05,WNW,285,3.0,6.0,54,0.00,,,0.00,meteohub,2015-08-31 19:27:00,
2015-08-31 15:32:00,86.5,68.0,30.05,West,276,1.0,8.0,54,0.00,,,0.00,meteohub,2015-08-31 19:32:00,
2015-08-31 15:37:00,86.7,68.0,30.04,ESE,113,1.0,8.0,54,0.00,,,0.00,meteohub,2015-08-31 19:37:00,
2015-08-31 15:42:00,87.4,68.7,30.04,SSW,206,2.0,8.0,54,0.00,,,0.00,meteohub,2015-08-31 19:42:00,
2015-08-31 15:47:00,88.2,69.4,30.04,WNW,284,1.0,5.0,54,0.00,,,0.00,meteohub,2015-08-31 19:47:00,
2015-08-31 15:52:00,87.4,67.1,30.04,SSW,212,3.0,6.0,51,0.00,,,0.00,meteohub,2015-08-31 19:52:00,
2015-08-31 15:57:00,86.7,68.0,30.04,South,189,3.0,6.0,54,0.00,,,0.00,meteohub,2015-08-31 19:57:00,
2015-08-31 16:02:00,86.5,68.0,30.04,SW,228,2.0,6.0,54,0.00,,,0.00,meteohub,2015-08-31 20:02:00,
2015-08-31 16:07:00,86.5,68.4,30.04,SSE,165,1.0,7.0,55,0.00,,,0.00,meteohub,2015-08-31 20:07:00,
2015-08-31 16:12:00,86.7,68.0,30.04,West,269,2.0,7.0,54,0.00,,,0.00,meteohub,2015-08-31 20:12:00,
2015-08-31 16:17:00,86.7,67.5,30.04,SW,229,3.0,7.0,53,0.00,,,0.00,meteohub,2015-08-31 20:17:00,
2015-08-31 16:22:00,86.5,68.0,30.04,SW,234,3.0,8.0,54,0.00,,,0.00,meteohub,2015-08-31 20:22:00,
2015-08-31 16:27:00,86.2,68.2,30.04,SW,221,0.0,9.0,55,0.00,,,0.00,meteohub,2015-08-31 20:27:00,
2015-08-31 16:32:00,86.4,67.8,30.04,SW,229,1.0,9.0,54,0.00,,,0.00,meteohub,2015-08-31 20:32:00,
2015-08-31 16:37:00,86.5,67.5,30.03,SSW,198,1.0,6.0,53,0.00,,,0.00,meteohub,2015-08-31 20:37:00,
2015-08-31 16:42:00,86.9,67.6,30.03,SW,224,6.0,6.0,53,0.00,,,0.00,meteohub,2015-08-31 20:42:00,
2015-08-31 16:47:00,86.7,66.9,30.03,West,277,2.0,7.0,52,0.00,,,0.00,meteohub,2015-08-31 20:47:00,
2015-08-31 16:52:00,86.4,67.3,30.03,West,273,2.0,7.0,53,0.00,,,0.00,meteohub,2015-08-31 20:52:00,
2015-08-31 16:57:00,86.2,67.1,30.03,SW,236,2.0,7.0,53,0.00,,,0.00,meteohub,2015-08-31 20:57:00,
2015-08-31 17:02:00,86.2,68.2,30.03,SW,223,0.0,7.0,55,0.00,,,0.00,meteohub,2015-08-31 21:02:00,
2015-08-31 17:07:00,86.2,67.1,30.03,WSW,241,2.0,7.0,53,0.00,,,0.00,meteohub,2015-08-31 21:07:00,
2015-08-31 17:12:00,85.8,67.3,30.03,SW,222,1.0,8.0,54,0.00,,,0.00,meteohub,2015-08-31 21:12:00,
2015-08-31 17:17:00,85.8,68.4,30.03,SW,236,3.0,8.0,56,0.00,,,0.00,meteohub,2015-08-31 21:17:00,
2015-08-31 17:22:00,85.6,68.2,30.03,West,268,0.0,6.0,56,0.00,,,0.00,meteohub,2015-08-31 21:22:00,
2015-08-31 17:27:00,85.8,68.9,30.03,West,273,2.0,6.0,57,0.00,,,0.00,meteohub,2015-08-31 21:27:00,
2015-08-31 17:32:00,85.8,68.9,30.02,West,279,2.0,6.0,57,0.00,,,0.00,meteohub,2015-08-31 21:32:00,
2015-08-31 17:37:00,85.8,68.4,30.02,SW,219,1.0,4.0,56,0.00,,,0.00,meteohub,2015-08-31 21:37:00,
2015-08-31 17:42:00,85.6,69.1,30.02,WNW,286,1.0,5.0,58,0.00,,,0.00,meteohub,2015-08-31 21:42:00,
2015-08-31 17:47:00,85.5,68.0,30.02,SW,227,1.0,5.0,56,0.00,,,0.00,meteohub,2015-08-31 21:47:00,
2015-08-31 17:52:00,85.6,67.6,30.02,WNW,283,2.0,5.0,55,0.00,,,0.00,meteohub,2015-08-31 21:52:00,
2015-08-31 17:57:00,85.5,66.9,30.03,SW,226,3.0,4.0,54,0.00,,,0.00,meteohub,2015-08-31 21:57:00,
2015-08-31 18:02:00,85.6,67.6,30.03,West,270,1.0,5.0,55,0.00,,,0.00,meteohub,2015-08-31 22:02:00,
2015-08-31 18:07:00,85.6,67.6,30.03,West,279,2.0,5.0,55,0.00,,,0.00,meteohub,2015-08-31 22:07:00,
2015-08-31 18:12:00,85.6,67.6,30.03,SW,227,1.0,4.0,55,0.00,,,0.00,meteohub,2015-08-31 22:12:00,
2015-08-31 18:17:00,85.5,67.5,30.02,SW,234,0.0,4.0,55,0.00,,,0.00,meteohub,2015-08-31 22:17:00,
2015-08-31 18:22:00,85.3,68.4,30.03,SW,235,2.0,4.0,57,0.00,,,0.00,meteohub,2015-08-31 22:22:00,
2015-08-31 18:27:00,85.3,68.4,30.03,West,277,2.0,3.0,57,0.00,,,0.00,meteohub,2015-08-31 22:27:00,
2015-08-31 18:30:00,85.1,68.7,30.03,West,281,0.0,3.0,58,0.00,,,0.00,meteohub,2015-08-31 22:30:00,
2015-08-31 18:35:00,84.9,68.0,30.03,SW,234,0.0,3.0,57,0.00,,,0.00,meteohub,2015-08-31 22:35:00,
2015-08-31 18:40:00,84.6,68.7,30.03,SW,235,1.0,3.0,59,0.00,,,0.00,meteohub,2015-08-31 22:40:00,
2015-08-31 18:46:00,84.6,68.2,30.03,SW,227,0.0,3.0,58,0.00,,,0.00,meteohub,2015-08-31 22:46:00,
2015-08-31 18:51:00,84.4,68.5,30.03,SW,227,0.0,2.0,59,0.00,,,0.00,meteohub,2015-08-31 22:51:00,
2015-08-31 18:52:00,84.4,69.4,30.03,SW,227,0.0,2.0,61,0.00,,,0.00,meteohub,2015-08-31 22:52:00,
2015-08-31 18:57:00,84.2,68.7,30.03,SSW,202,0.0,2.0,60,0.00,,,0.00,meteohub,2015-08-31 22:57:00,
2015-08-31 19:02:00,83.8,68.0,30.03,SSW,204,0.0,2.0,59,0.00,,,0.00,meteohub,2015-08-31 23:02:00,
2015-08-31 19:08:00,83.7,68.7,30.03,SSW,205,1.0,2.0,61,0.00,,,0.00,meteohub,2015-08-31 23:08:00,
2015-08-31 19:13:00,82.2,68.4,30.03,NNE,19,5.0,5.0,63,0.00,,,0.00,meteohub,2015-08-31 23:13:00,
2015-08-31 19:18:00,80.8,68.7,30.04,NNE,13,3.0,8.0,67,0.00,,,0.00,meteohub,2015-08-31 23:18:00,
2015-08-31 19:23:00,80.1,68.9,30.04,North,5,1.0,8.0,69,0.00,,,0.00,meteohub,2015-08-31 23:23:00,
2015-08-31 19:28:00,79.7,69.1,30.03,North,5,0.0,8.0,70,0.00,,,0.00,meteohub,2015-08-31 23:28:00,
2015-08-31 19:33:00,79.5,68.9,30.03,North,5,0.0,5.0,70,0.00,,,0.00,meteohub,2015-08-31 23:33:00,
2015-08-31 19:39:00,79.5,69.3,30.03,NNE,24,1.0,3.0,71,0.00,,,0.00,meteohub,2015-08-31 23:39:00,
2015-08-31 19:44:00,79.5,68.9,30.03,NNE,19,0.0,2.0,70,0.00,,,0.00,meteohub,2015-08-31 23:44:00,
2015-08-31 19:49:00,79.3,69.1,30.03,NNE,19,0.0,2.0,71,0.00,,,0.00,meteohub,2015-08-31 23:49:00,
2015-08-31 19:54:00,79.3,69.1,30.03,NNE,19,0.0,2.0,71,0.00,,,0.00,meteohub,2015-08-31 23:54:00,
2015-08-31 19:59:00,79.3,68.4,30.04,West,264,2.0,2.0,69,0.00,,,0.00,meteohub,2015-08-31 23:59:00,
2015-08-31 20:04:00,78.8,67.8,30.04,South,184,3.0,6.0,69,0.00,,,0.00,meteohub,2015-09-01 00:04:00,
2015-08-31 20:09:00,78.6,67.1,30.04,SSW,196,2.0,6.0,68,0.00,,,0.00,meteohub,2015-09-01 00:09:00,
2015-08-31 20:15:00,78.1,67.1,30.04,SW,220,2.0,7.0,69,0.00,,,0.00,meteohub,2015-09-01 00:15:00,
2015-08-31 20:20:00,77.0,68.0,30.05,SW,223,4.0,7.0,74,0.00,,,0.00,meteohub,2015-09-01 00:20:00,
2015-08-31 20:25:00,75.7,68.0,30.05,SW,215,2.0,5.0,77,0.00,,,0.00,meteohub,2015-09-01 00:25:00,
2015-08-31 20:30:00,74.8,68.5,30.04,SSW,201,1.0,6.0,81,0.00,,,0.00,meteohub,2015-09-01 00:30:00,
2015-08-31 20:35:00,74.5,69.3,30.04,SSE,148,2.0,6.0,84,0.00,,,0.00,meteohub,2015-09-01 00:35:00,
2015-08-31 20:40:00,73.9,69.4,30.04,SW,217,1.0,5.0,86,0.00,,,0.00,meteohub,2015-09-01 00:40:00,
2015-08-31 20:46:00,73.8,68.9,30.04,SW,220,0.0,4.0,85,0.00,,,0.00,meteohub,2015-09-01 00:46:00,
2015-08-31 20:51:00,73.4,68.9,30.05,SSW,202,2.0,4.0,86,0.00,,,0.00,meteohub,2015-09-01 00:51:00,
2015-08-31 20:56:00,73.0,68.9,30.05,SSW,212,0.0,4.0,87,0.00,,,0.00,meteohub,2015-09-01 00:56:00,
2015-08-31 21:01:00,72.9,68.7,30.05,SSW,212,0.0,3.0,87,0.00,,,0.00,meteohub,2015-09-01 01:01:00,
2015-08-31 21:06:00,72.9,69.1,30.05,SSW,212,0.0,3.0,88,0.00,,,0.00,meteohub,2015-09-01 01:06:00,
2015-08-31 21:11:00,72.7,69.3,30.05,SSW,212,0.0,2.0,89,0.00,,,0.00,meteohub,2015-09-01 01:11:00,
2015-08-31 21:17:00,72.7,69.3,30.05,SSW,212,0.0,1.0,89,0.00,,,0.00,meteohub,2015-09-01 01:17:00,
2015-08-31 21:22:00,72.7,69.3,30.05,SSW,212,0.0,1.0,89,0.00,,,0.00,meteohub,2015-09-01 01:22:00,
2015-08-31 21:27:00,72.5,69.1,30.05,SSW,212,0.0,0.0,89,0.00,,,0.00,meteohub,2015-09-01 01:27:00,
2015-08-31 21:32:00,72.3,68.5,30.06,SSW,212,0.0,0.0,88,0.00,,,0.00,meteohub,2015-09-01 01:32:00,
2015-08-31 21:37:00,72.3,69.3,30.06,SSW,212,0.0,0.0,90,0.00,,,0.00,meteohub,2015-09-01 01:37:00,
2015-08-31 21:42:00,72.3,69.6,30.06,SSW,212,0.0,1.0,91,0.00,,,0.00,meteohub,2015-09-01 01:42:00,
2015-08-31 21:47:00,72.3,69.6,30.06,SSW,212,0.0,1.0,91,0.00,,,0.00,meteohub,2015-09-01 01:47:00,
2015-08-31 21:52:00,72.5,70.0,30.06,SSW,212,0.0,1.0,92,0.00,,,0.00,meteohub,2015-09-01 01:52:00,
2015-08-31 21:57:00,72.7,70.0,30.06,SSW,212,0.0,1.0,91,0.00,,,0.00,meteohub,2015-09-01 01:57:00,
2015-08-31 22:02:00,72.5,69.1,30.06,SSW,212,0.0,1.0,89,0.00,,,0.00,meteohub,2015-09-01 02:02:00,
2015-08-31 22:07:00,72.7,69.6,30.06,SSW,212,0.0,1.0,90,0.00,,,0.00,meteohub,2015-09-01 02:07:00,
2015-08-31 22:12:00,72.9,69.8,30.06,SSW,212,0.0,1.0,90,0.00,,,0.00,meteohub,2015-09-01 02:12:00,
2015-08-31 22:17:00,72.9,69.8,30.06,SSW,212,0.0,1.0,90,0.00,,,0.00,meteohub,2015-09-01 02:17:00,